sensor_id;sensor_type;location;lat;lon;timestamp;temperature;humidity
67901;DHT22;54700;51.796;10.956;2023-02-26T00:00:09;-0.40;99.00
67901;DHT22;54700;51.796;10.956;2023-02-26T00:02:39;-0.40;97.90
67901;DHT22;54700;51.796;10.956;2023-02-26T00:05:06;-0.40;98.80
67901;DHT22;54700;51.796;10.956;2023-02-26T00:07:34;-0.40;99.30
67901;DHT22;54700;51.796;10.956;2023-02-26T00:10:00;-0.40;98.50
67901;DHT22;54700;51.796;10.956;2023-02-26T00:12:27;-0.40;98.70
67901;DHT22;54700;51.796;10.956;2023-02-26T00:14:56;-0.40;98.80
67901;DHT22;54700;51.796;10.956;2023-02-26T00:17:35;-0.40;99.00
67901;DHT22;54700;51.796;10.956;2023-02-26T00:20:08;-0.40;98.20
67901;DHT22;54700;51.796;10.956;2023-02-26T00:22:37;-0.40;98.70
67901;DHT22;54700;51.796;10.956;2023-02-26T00:25:04;-0.50;98.10
67901;DHT22;54700;51.796;10.956;2023-02-26T00:27:31;-0.50;98.60
67901;DHT22;54700;51.796;10.956;2023-02-26T00:30:00;-0.50;99.00
67901;DHT22;54700;51.796;10.956;2023-02-26T00:32:27;-0.50;99.00
67901;DHT22;54700;51.796;10.956;2023-02-26T00:34:55;-0.50;99.30
67901;DHT22;54700;51.796;10.956;2023-02-26T00:37:26;-0.40;98.70
67901;DHT22;54700;51.796;10.956;2023-02-26T00:40:00;-0.50;98.90
67901;DHT22;54700;51.796;10.956;2023-02-26T00:42:37;-0.50;99.00
67901;DHT22;54700;51.796;10.956;2023-02-26T00:45:06;-0.50;98.90
67901;DHT22;54700;51.796;10.956;2023-02-26T00:47:36;-0.50;98.90
67901;DHT22;54700;51.796;10.956;2023-02-26T00:50:12;-0.50;99.30
67901;DHT22;54700;51.796;10.956;2023-02-26T00:52:43;-0.50;99.50
67901;DHT22;54700;51.796;10.956;2023-02-26T00:55:15;-0.60;99.30
67901;DHT22;54700;51.796;10.956;2023-02-26T00:57:43;-0.60;99.70
67901;DHT22;54700;51.796;10.956;2023-02-26T01:00:12;-0.60;99.30
67901;DHT22;54700;51.796;10.956;2023-02-26T01:02:40;-0.60;99.30
67901;DHT22;54700;51.796;10.956;2023-02-26T01:05:08;-0.60;99.20
67901;DHT22;54700;51.796;10.956;2023-02-26T01:07:39;-0.60;98.80
67901;DHT22;54700;51.796;10.956;2023-02-26T01:10:10;-0.60;98.90
67901;DHT22;54700;51.796;10.956;2023-02-26T01:12:38;-0.60;98.30
67901;DHT22;54700;51.796;10.956;2023-02-26T01:15:06;-0.70;98.90
67901;DHT22;54700;51.796;10.956;2023-02-26T01:17:37;-0.70;98.80
67901;DHT22;54700;51.796;10.956;2023-02-26T01:20:12;-0.70;99.30
67901;DHT22;54700;51.796;10.956;2023-02-26T01:22:44;-0.70;99.10
67901;DHT22;54700;51.796;10.956;2023-02-26T01:25:17;-0.70;99.20
67901;DHT22;54700;51.796;10.956;2023-02-26T01:27:48;-0.80;99.60
67901;DHT22;54700;51.796;10.956;2023-02-26T01:30:16;-0.80;99.50
67901;DHT22;54700;51.796;10.956;2023-02-26T01:32:45;-0.80;99.40
67901;DHT22;54700;51.796;10.956;2023-02-26T01:35:18;-0.80;99.90
67901;DHT22;54700;51.796;10.956;2023-02-26T01:37:55;-0.90;99.90
67901;DHT22;54700;51.796;10.956;2023-02-26T01:40:32;-0.90;99.90
67901;DHT22;54700;51.796;10.956;2023-02-26T01:43:04;-0.90;99.90
67901;DHT22;54700;51.796;10.956;2023-02-26T01:45:37;-1.00;99.90
67901;DHT22;54700;51.796;10.956;2023-02-26T01:48:17;-1.00;99.90
67901;DHT22;54700;51.796;10.956;2023-02-26T01:50:56;-1.00;99.90
67901;DHT22;54700;51.796;10.956;2023-02-26T01:53:23;-1.00;99.90
67901;DHT22;54700;51.796;10.956;2023-02-26T01:55:53;-1.10;99.90
67901;DHT22;54700;51.796;10.956;2023-02-26T01:58:22;-1.10;99.90
67901;DHT22;54700;51.796;10.956;2023-02-26T02:00:52;-1.10;99.90
67901;DHT22;54700;51.796;10.956;2023-02-26T02:03:20;-1.10;99.90
67901;DHT22;54700;51.796;10.956;2023-02-26T02:05:49;-1.10;99.90
67901;DHT22;54700;51.796;10.956;2023-02-26T02:08:20;-1.00;99.90
67901;DHT22;54700;51.796;10.956;2023-02-26T02:10:47;-1.10;99.90
67901;DHT22;54700;51.796;10.956;2023-02-26T02:13:24;-1.00;99.90
67901;DHT22;54700;51.796;10.956;2023-02-26T02:16:03;-1.00;99.90
67901;DHT22;54700;51.796;10.956;2023-02-26T02:18:41;-1.00;99.90
67901;DHT22;54700;51.796;10.956;2023-02-26T02:21:21;-1.00;99.90
67901;DHT22;54700;51.796;10.956;2023-02-26T02:24:00;-1.00;99.90
67901;DHT22;54700;51.796;10.956;2023-02-26T02:26:39;-1.00;99.90
67901;DHT22;54700;51.796;10.956;2023-02-26T02:32:17;-1.10;99.90
67901;DHT22;54700;51.796;10.956;2023-02-26T02:34:48;-1.10;99.90
67901;DHT22;54700;51.796;10.956;2023-02-26T02:37:20;-1.10;99.90
67901;DHT22;54700;51.796;10.956;2023-02-26T02:39:52;-1.00;99.90
67901;DHT22;54700;51.796;10.956;2023-02-26T02:42:25;-1.10;99.90
67901;DHT22;54700;51.796;10.956;2023-02-26T02:44:58;-1.10;99.90
67901;DHT22;54700;51.796;10.956;2023-02-26T02:47:29;-1.10;99.90
67901;DHT22;54700;51.796;10.956;2023-02-26T02:50:02;-1.10;99.90
67901;DHT22;54700;51.796;10.956;2023-02-26T02:52:35;-1.10;99.90
67901;DHT22;54700;51.796;10.956;2023-02-26T02:55:09;-1.10;99.90
67901;DHT22;54700;51.796;10.956;2023-02-26T02:57:42;-1.10;99.90
67901;DHT22;54700;51.796;10.956;2023-02-26T03:00:12;-1.10;99.90
67901;DHT22;54700;51.796;10.956;2023-02-26T03:02:44;-1.10;99.90
67901;DHT22;54700;51.796;10.956;2023-02-26T03:05:16;-1.00;99.90
67901;DHT22;54700;51.796;10.956;2023-02-26T03:07:44;-1.00;99.90
67901;DHT22;54700;51.796;10.956;2023-02-26T03:10:16;-1.00;99.90
67901;DHT22;54700;51.796;10.956;2023-02-26T03:12:44;-1.10;99.90
67901;DHT22;54700;51.796;10.956;2023-02-26T03:15:10;-1.10;99.90
67901;DHT22;54700;51.796;10.956;2023-02-26T03:17:40;-1.10;99.90
67901;DHT22;54700;51.796;10.956;2023-02-26T03:20:22;-1.10;99.90
67901;DHT22;54700;51.796;10.956;2023-02-26T03:22:56;-1.00;99.90
67901;DHT22;54700;51.796;10.956;2023-02-26T03:25:32;-1.00;99.90
67901;DHT22;54700;51.796;10.956;2023-02-26T03:28:06;-1.00;99.90
67901;DHT22;54700;51.796;10.956;2023-02-26T03:30:38;-1.00;99.90
67901;DHT22;54700;51.796;10.956;2023-02-26T03:33:11;-1.00;99.90
67901;DHT22;54700;51.796;10.956;2023-02-26T03:35:44;-1.00;99.90
67901;DHT22;54700;51.796;10.956;2023-02-26T03:38:18;-1.00;99.90
67901;DHT22;54700;51.796;10.956;2023-02-26T03:40:51;-1.00;99.90
67901;DHT22;54700;51.796;10.956;2023-02-26T03:43:24;-1.10;99.90
67901;DHT22;54700;51.796;10.956;2023-02-26T03:45:55;-1.00;99.90
67901;DHT22;54700;51.796;10.956;2023-02-26T03:48:29;-1.00;99.90
67901;DHT22;54700;51.796;10.956;2023-02-26T03:50:57;-1.00;99.90
67901;DHT22;54700;51.796;10.956;2023-02-26T03:53:31;-1.00;99.90
67901;DHT22;54700;51.796;10.956;2023-02-26T03:56:06;-1.00;99.90
67901;DHT22;54700;51.796;10.956;2023-02-26T03:58:40;-1.00;99.90
67901;DHT22;54700;51.796;10.956;2023-02-26T04:01:08;-1.00;99.90
67901;DHT22;54700;51.796;10.956;2023-02-26T04:03:43;-1.00;99.90
67901;DHT22;54700;51.796;10.956;2023-02-26T04:06:13;-1.00;99.90
67901;DHT22;54700;51.796;10.956;2023-02-26T04:08:39;-1.00;99.90
67901;DHT22;54700;51.796;10.956;2023-02-26T04:11:08;-1.00;99.90
67901;DHT22;54700;51.796;10.956;2023-02-26T04:13:41;-1.00;99.90
67901;DHT22;54700;51.796;10.956;2023-02-26T04:16:08;-1.00;99.90
67901;DHT22;54700;51.796;10.956;2023-02-26T04:18:35;-1.00;99.90
67901;DHT22;54700;51.796;10.956;2023-02-26T04:21:03;-1.00;99.90
67901;DHT22;54700;51.796;10.956;2023-02-26T04:23:30;-1.00;99.90
67901;DHT22;54700;51.796;10.956;2023-02-26T04:25:57;-1.00;99.90
67901;DHT22;54700;51.796;10.956;2023-02-26T04:28:24;-1.00;99.90
67901;DHT22;54700;51.796;10.956;2023-02-26T04:30:51;-1.00;99.90
67901;DHT22;54700;51.796;10.956;2023-02-26T04:33:18;-1.00;99.90
67901;DHT22;54700;51.796;10.956;2023-02-26T04:35:45;-1.00;99.90
67901;DHT22;54700;51.796;10.956;2023-02-26T04:38:13;-1.00;99.90
67901;DHT22;54700;51.796;10.956;2023-02-26T04:40:39;-1.00;99.90
67901;DHT22;54700;51.796;10.956;2023-02-26T04:43:07;-1.00;99.90
67901;DHT22;54700;51.796;10.956;2023-02-26T04:45:33;-1.00;99.90
67901;DHT22;54700;51.796;10.956;2023-02-26T04:48:00;-1.00;99.90
67901;DHT22;54700;51.796;10.956;2023-02-26T04:50:27;-1.00;99.90
67901;DHT22;54700;51.796;10.956;2023-02-26T04:52:54;-1.00;99.90
67901;DHT22;54700;51.796;10.956;2023-02-26T04:55:22;-1.00;99.90
67901;DHT22;54700;51.796;10.956;2023-02-26T04:57:48;-0.90;99.90
67901;DHT22;54700;51.796;10.956;2023-02-26T05:00:16;-0.90;99.90
67901;DHT22;54700;51.796;10.956;2023-02-26T05:02:44;-0.90;99.90
67901;DHT22;54700;51.796;10.956;2023-02-26T05:05:11;-0.90;99.90
67901;DHT22;54700;51.796;10.956;2023-02-26T05:07:38;-1.00;99.90
67901;DHT22;54700;51.796;10.956;2023-02-26T05:10:05;-0.90;99.90
67901;DHT22;54700;51.796;10.956;2023-02-26T05:12:34;-0.90;99.90
67901;DHT22;54700;51.796;10.956;2023-02-26T05:15:01;-0.90;99.90
67901;DHT22;54700;51.796;10.956;2023-02-26T05:17:27;-1.00;99.90
67901;DHT22;54700;51.796;10.956;2023-02-26T05:19:54;-1.00;99.90
67901;DHT22;54700;51.796;10.956;2023-02-26T05:22:21;-0.90;99.90
67901;DHT22;54700;51.796;10.956;2023-02-26T05:24:48;-1.00;99.90
67901;DHT22;54700;51.796;10.956;2023-02-26T05:27:15;-0.90;99.90
67901;DHT22;54700;51.796;10.956;2023-02-26T05:29:43;-0.90;99.90
67901;DHT22;54700;51.796;10.956;2023-02-26T05:32:10;-0.90;99.90
67901;DHT22;54700;51.796;10.956;2023-02-26T05:34:37;-0.90;99.90
67901;DHT22;54700;51.796;10.956;2023-02-26T05:37:04;-0.90;99.90
67901;DHT22;54700;51.796;10.956;2023-02-26T05:39:31;-0.90;99.90
67901;DHT22;54700;51.796;10.956;2023-02-26T05:41:58;-0.90;99.90
67901;DHT22;54700;51.796;10.956;2023-02-26T05:44:24;-0.90;99.90
67901;DHT22;54700;51.796;10.956;2023-02-26T05:46:53;-0.90;99.90
67901;DHT22;54700;51.796;10.956;2023-02-26T05:49:20;-0.90;99.90
67901;DHT22;54700;51.796;10.956;2023-02-26T05:51:47;-0.90;99.90
67901;DHT22;54700;51.796;10.956;2023-02-26T05:54:13;-0.90;99.90
67901;DHT22;54700;51.796;10.956;2023-02-26T05:56:40;-0.90;99.90
67901;DHT22;54700;51.796;10.956;2023-02-26T05:59:07;-0.90;99.90
67901;DHT22;54700;51.796;10.956;2023-02-26T06:01:34;-0.90;99.90
67901;DHT22;54700;51.796;10.956;2023-02-26T06:04:03;-0.90;99.90
67901;DHT22;54700;51.796;10.956;2023-02-26T06:06:29;-0.90;99.90
67901;DHT22;54700;51.796;10.956;2023-02-26T06:08:56;-0.90;99.90
67901;DHT22;54700;51.796;10.956;2023-02-26T06:11:25;-0.90;99.90
67901;DHT22;54700;51.796;10.956;2023-02-26T06:13:52;-0.90;99.90
67901;DHT22;54700;51.796;10.956;2023-02-26T06:16:21;-0.90;99.90
67901;DHT22;54700;51.796;10.956;2023-02-26T06:18:48;-0.90;99.90
67901;DHT22;54700;51.796;10.956;2023-02-26T06:21:17;-0.90;99.90
67901;DHT22;54700;51.796;10.956;2023-02-26T06:23:44;-0.90;99.90
67901;DHT22;54700;51.796;10.956;2023-02-26T06:26:11;-0.90;99.90
67901;DHT22;54700;51.796;10.956;2023-02-26T06:28:38;-0.90;99.90
67901;DHT22;54700;51.796;10.956;2023-02-26T06:31:04;-0.90;99.90
67901;DHT22;54700;51.796;10.956;2023-02-26T06:33:31;-0.90;99.90
67901;DHT22;54700;51.796;10.956;2023-02-26T06:35:58;-0.90;99.90
67901;DHT22;54700;51.796;10.956;2023-02-26T06:38:28;-0.90;99.90
67901;DHT22;54700;51.796;10.956;2023-02-26T06:40:55;-0.90;99.90
67901;DHT22;54700;51.796;10.956;2023-02-26T06:43:22;-0.90;99.90
67901;DHT22;54700;51.796;10.956;2023-02-26T06:45:48;-0.90;99.90
67901;DHT22;54700;51.796;10.956;2023-02-26T06:48:15;-0.90;99.90
67901;DHT22;54700;51.796;10.956;2023-02-26T06:50:42;-0.90;99.90
67901;DHT22;54700;51.796;10.956;2023-02-26T06:53:09;-0.80;99.90
67901;DHT22;54700;51.796;10.956;2023-02-26T06:55:40;-0.90;99.90
67901;DHT22;54700;51.796;10.956;2023-02-26T06:58:08;-0.80;99.90
67901;DHT22;54700;51.796;10.956;2023-02-26T07:00:37;-0.90;99.90
67901;DHT22;54700;51.796;10.956;2023-02-26T07:03:05;-0.80;99.90
67901;DHT22;54700;51.796;10.956;2023-02-26T07:05:32;-0.80;99.90
67901;DHT22;54700;51.796;10.956;2023-02-26T07:07:59;-0.80;99.90
67901;DHT22;54700;51.796;10.956;2023-02-26T07:10:26;-0.80;99.90
67901;DHT22;54700;51.796;10.956;2023-02-26T07:12:54;-0.80;99.90
67901;DHT22;54700;51.796;10.956;2023-02-26T07:15:21;-0.70;99.90
67901;DHT22;54700;51.796;10.956;2023-02-26T07:17:48;-0.70;99.90
67901;DHT22;54700;51.796;10.956;2023-02-26T07:20:15;-0.70;99.90
67901;DHT22;54700;51.796;10.956;2023-02-26T07:22:42;-0.60;99.90
67901;DHT22;54700;51.796;10.956;2023-02-26T07:25:10;-0.60;99.90
67901;DHT22;54700;51.796;10.956;2023-02-26T07:27:37;-0.60;99.50
67901;DHT22;54700;51.796;10.956;2023-02-26T07:30:07;-0.60;99.60
67901;DHT22;54700;51.796;10.956;2023-02-26T07:32:35;-0.60;99.40
67901;DHT22;54700;51.796;10.956;2023-02-26T07:35:02;-0.60;99.60
67901;DHT22;54700;51.796;10.956;2023-02-26T07:37:29;-0.60;99.50
67901;DHT22;54700;51.796;10.956;2023-02-26T07:39:56;-0.60;99.30
67901;DHT22;54700;51.796;10.956;2023-02-26T07:42:23;-0.60;99.80
67901;DHT22;54700;51.796;10.956;2023-02-26T07:44:50;-0.60;99.30
67901;DHT22;54700;51.796;10.956;2023-02-26T07:47:18;-0.60;98.60
67901;DHT22;54700;51.796;10.956;2023-02-26T07:49:45;-0.70;98.70
67901;DHT22;54700;51.796;10.956;2023-02-26T07:52:11;-0.70;98.10
67901;DHT22;54700;51.796;10.956;2023-02-26T07:54:38;-0.60;97.40
67901;DHT22;54700;51.796;10.956;2023-02-26T07:57:05;-0.60;95.90
67901;DHT22;54700;51.796;10.956;2023-02-26T07:59:32;-0.50;97.00
67901;DHT22;54700;51.796;10.956;2023-02-26T08:01:59;-0.40;97.20
67901;DHT22;54700;51.796;10.956;2023-02-26T08:04:27;-0.40;96.40
67901;DHT22;54700;51.796;10.956;2023-02-26T08:06:56;-0.30;95.60
67901;DHT22;54700;51.796;10.956;2023-02-26T08:09:23;-0.30;93.30
67901;DHT22;54700;51.796;10.956;2023-02-26T08:11:50;-0.30;91.30
67901;DHT22;54700;51.796;10.956;2023-02-26T08:14:17;-0.30;93.10
67901;DHT22;54700;51.796;10.956;2023-02-26T08:16:43;-0.30;90.90
67901;DHT22;54700;51.796;10.956;2023-02-26T08:19:10;-0.30;89.40
67901;DHT22;54700;51.796;10.956;2023-02-26T08:21:38;-0.20;88.70
67901;DHT22;54700;51.796;10.956;2023-02-26T08:24:05;-0.20;88.30
67901;DHT22;54700;51.796;10.956;2023-02-26T08:26:34;-0.30;84.10
67901;DHT22;54700;51.796;10.956;2023-02-26T08:29:01;-0.30;85.80
67901;DHT22;54700;51.796;10.956;2023-02-26T08:31:29;-0.30;90.00
67901;DHT22;54700;51.796;10.956;2023-02-26T08:33:58;-0.30;86.30
67901;DHT22;54700;51.796;10.956;2023-02-26T08:36:25;-0.30;88.90
67901;DHT22;54700;51.796;10.956;2023-02-26T08:38:53;-0.30;87.90
67901;DHT22;54700;51.796;10.956;2023-02-26T08:41:20;-0.30;85.50
67901;DHT22;54700;51.796;10.956;2023-02-26T08:43:47;-0.20;84.40
67901;DHT22;54700;51.796;10.956;2023-02-26T08:46:14;-0.20;84.40
67901;DHT22;54700;51.796;10.956;2023-02-26T08:48:41;-0.20;82.60
67901;DHT22;54700;51.796;10.956;2023-02-26T08:51:08;-0.10;86.20
67901;DHT22;54700;51.796;10.956;2023-02-26T08:53:35;-0.10;82.30
67901;DHT22;54700;51.796;10.956;2023-02-26T08:56:03;0.00;86.10
67901;DHT22;54700;51.796;10.956;2023-02-26T08:58:30;0.10;83.60
67901;DHT22;54700;51.796;10.956;2023-02-26T09:00:57;0.20;80.40
67901;DHT22;54700;51.796;10.956;2023-02-26T09:03:24;0.20;79.10
67901;DHT22;54700;51.796;10.956;2023-02-26T09:05:51;0.20;81.30
67901;DHT22;54700;51.796;10.956;2023-02-26T09:08:19;0.30;78.40
67901;DHT22;54700;51.796;10.956;2023-02-26T09:10:46;0.20;76.80
67901;DHT22;54700;51.796;10.956;2023-02-26T09:13:14;0.20;77.80
67901;DHT22;54700;51.796;10.956;2023-02-26T09:15:41;0.20;76.80
67901;DHT22;54700;51.796;10.956;2023-02-26T09:18:08;0.10;76.40
67901;DHT22;54700;51.796;10.956;2023-02-26T09:20:39;0.20;79.40
67901;DHT22;54700;51.796;10.956;2023-02-26T09:23:07;0.30;77.50
67901;DHT22;54700;51.796;10.956;2023-02-26T09:25:34;0.30;77.60
67901;DHT22;54700;51.796;10.956;2023-02-26T09:28:01;0.40;76.30
67901;DHT22;54700;51.796;10.956;2023-02-26T09:30:34;0.30;74.00
67901;DHT22;54700;51.796;10.956;2023-02-26T09:33:00;0.30;76.60
67901;DHT22;54700;51.796;10.956;2023-02-26T09:35:27;0.30;75.70
67901;DHT22;54700;51.796;10.956;2023-02-26T09:37:54;0.40;75.70
67901;DHT22;54700;51.796;10.956;2023-02-26T09:40:23;0.40;74.90
67901;DHT22;54700;51.796;10.956;2023-02-26T09:43:01;0.40;75.80
67901;DHT22;54700;51.796;10.956;2023-02-26T09:45:43;0.40;77.70
67901;DHT22;54700;51.796;10.956;2023-02-26T09:48:14;0.40;77.90
67901;DHT22;54700;51.796;10.956;2023-02-26T09:50:44;0.50;77.60
67901;DHT22;54700;51.796;10.956;2023-02-26T09:53:14;0.70;77.80
67901;DHT22;54700;51.796;10.956;2023-02-26T09:55:44;0.80;75.30
67901;DHT22;54700;51.796;10.956;2023-02-26T09:58:16;0.80;74.20
67901;DHT22;54700;51.796;10.956;2023-02-26T10:00:53;0.70;74.80
67901;DHT22;54700;51.796;10.956;2023-02-26T10:03:27;0.80;72.70
67901;DHT22;54700;51.796;10.956;2023-02-26T10:06:11;0.90;76.60
67901;DHT22;54700;51.796;10.956;2023-02-26T10:08:45;1.00;75.60
67901;DHT22;54700;51.796;10.956;2023-02-26T10:11:22;1.20;73.40
67901;DHT22;54700;51.796;10.956;2023-02-26T10:13:56;1.20;71.00
67901;DHT22;54700;51.796;10.956;2023-02-26T10:16:32;1.20;70.80
67901;DHT22;54700;51.796;10.956;2023-02-26T10:19:12;1.10;72.00
67901;DHT22;54700;51.796;10.956;2023-02-26T10:21:44;1.00;73.10
67901;DHT22;54700;51.796;10.956;2023-02-26T10:24:17;1.00;73.60
67901;DHT22;54700;51.796;10.956;2023-02-26T10:26:50;1.10;73.50
67901;DHT22;54700;51.796;10.956;2023-02-26T10:29:24;1.10;73.60
67901;DHT22;54700;51.796;10.956;2023-02-26T10:32:01;1.10;73.50
67901;DHT22;54700;51.796;10.956;2023-02-26T10:34:38;1.00;71.80
67901;DHT22;54700;51.796;10.956;2023-02-26T10:37:13;1.00;72.90
67901;DHT22;54700;51.796;10.956;2023-02-26T10:39:46;1.00;71.50
67901;DHT22;54700;51.796;10.956;2023-02-26T10:42:17;0.90;71.50
67901;DHT22;54700;51.796;10.956;2023-02-26T10:44:50;0.90;73.20
67901;DHT22;54700;51.796;10.956;2023-02-26T10:47:30;0.90;71.60
67901;DHT22;54700;51.796;10.956;2023-02-26T10:50:08;1.00;71.80
67901;DHT22;54700;51.796;10.956;2023-02-26T10:52:37;1.10;69.40
67901;DHT22;54700;51.796;10.956;2023-02-26T10:55:11;1.20;68.30
67901;DHT22;54700;51.796;10.956;2023-02-26T10:57:51;1.30;67.10
67901;DHT22;54700;51.796;10.956;2023-02-26T11:00:27;1.30;66.50
67901;DHT22;54700;51.796;10.956;2023-02-26T11:02:56;1.50;72.10
67901;DHT22;54700;51.796;10.956;2023-02-26T11:05:24;1.60;69.70
67901;DHT22;54700;51.796;10.956;2023-02-26T11:07:55;1.60;66.60
67901;DHT22;54700;51.796;10.956;2023-02-26T11:10:24;1.50;66.90
67901;DHT22;54700;51.796;10.956;2023-02-26T11:12:53;1.30;65.80
67901;DHT22;54700;51.796;10.956;2023-02-26T11:15:20;1.20;64.80
67901;DHT22;54700;51.796;10.956;2023-02-26T11:17:48;1.10;65.60
67901;DHT22;54700;51.796;10.956;2023-02-26T11:20:27;1.00;66.10
67901;DHT22;54700;51.796;10.956;2023-02-26T11:22:59;1.00;66.00
67901;DHT22;54700;51.796;10.956;2023-02-26T11:25:29;1.10;67.00
67901;DHT22;54700;51.796;10.956;2023-02-26T11:27:59;1.20;66.10
67901;DHT22;54700;51.796;10.956;2023-02-26T11:30:28;1.40;64.90
67901;DHT22;54700;51.796;10.956;2023-02-26T11:32:57;1.60;65.10
67901;DHT22;54700;51.796;10.956;2023-02-26T11:35:33;1.80;66.30
67901;DHT22;54700;51.796;10.956;2023-02-26T11:38:01;1.90;64.70
67901;DHT22;54700;51.796;10.956;2023-02-26T11:40:33;1.90;68.50
67901;DHT22;54700;51.796;10.956;2023-02-26T11:43:03;1.90;66.40
67901;DHT22;54700;51.796;10.956;2023-02-26T11:45:33;1.90;65.00
67901;DHT22;54700;51.796;10.956;2023-02-26T11:48:03;1.80;64.00
67901;DHT22;54700;51.796;10.956;2023-02-26T11:50:37;1.80;63.50
67901;DHT22;54700;51.796;10.956;2023-02-26T11:53:17;1.80;64.90
67901;DHT22;54700;51.796;10.956;2023-02-26T11:55:46;1.70;62.70
67901;DHT22;54700;51.796;10.956;2023-02-26T11:58:19;1.70;64.60
67901;DHT22;54700;51.796;10.956;2023-02-26T12:00:47;1.90;64.80
67901;DHT22;54700;51.796;10.956;2023-02-26T12:03:18;1.90;63.90
67901;DHT22;54700;51.796;10.956;2023-02-26T12:05:48;1.90;64.60
67901;DHT22;54700;51.796;10.956;2023-02-26T12:08:19;1.90;62.10
67901;DHT22;54700;51.796;10.956;2023-02-26T12:10:57;1.80;63.00
67901;DHT22;54700;51.796;10.956;2023-02-26T12:13:33;1.80;62.80
67901;DHT22;54700;51.796;10.956;2023-02-26T12:16:11;1.80;63.70
67901;DHT22;54700;51.796;10.956;2023-02-26T12:18:50;1.90;62.30
67901;DHT22;54700;51.796;10.956;2023-02-26T12:21:27;1.90;62.50
67901;DHT22;54700;51.796;10.956;2023-02-26T12:24:14;1.70;62.40
67901;DHT22;54700;51.796;10.956;2023-02-26T12:26:58;1.60;63.60
67901;DHT22;54700;51.796;10.956;2023-02-26T12:29:37;1.70;61.60
67901;DHT22;54700;51.796;10.956;2023-02-26T12:32:14;1.90;62.50
67901;DHT22;54700;51.796;10.956;2023-02-26T12:35:03;2.20;60.30
67901;DHT22;54700;51.796;10.956;2023-02-26T12:37:49;2.20;59.00
67901;DHT22;54700;51.796;10.956;2023-02-26T12:40:33;2.10;58.40
67901;DHT22;54700;51.796;10.956;2023-02-26T12:43:17;2.10;56.50
67901;DHT22;54700;51.796;10.956;2023-02-26T12:45:52;2.00;56.10
67901;DHT22;54700;51.796;10.956;2023-02-26T12:48:33;2.00;56.40
67901;DHT22;54700;51.796;10.956;2023-02-26T12:51:21;2.00;57.20
67901;DHT22;54700;51.796;10.956;2023-02-26T12:54:04;2.10;57.40
67901;DHT22;54700;51.796;10.956;2023-02-26T12:56:57;2.20;58.00
67901;DHT22;54700;51.796;10.956;2023-02-26T12:59:41;2.30;58.90
67901;DHT22;54700;51.796;10.956;2023-02-26T13:02:31;2.40;59.50
67901;DHT22;54700;51.796;10.956;2023-02-26T13:05:26;2.20;55.90
67901;DHT22;54700;51.796;10.956;2023-02-26T13:08:11;2.10;59.90
67901;DHT22;54700;51.796;10.956;2023-02-26T13:10:50;2.10;57.70
67901;DHT22;54700;51.796;10.956;2023-02-26T13:13:33;2.20;56.80
67901;DHT22;54700;51.796;10.956;2023-02-26T13:16:15;2.30;57.50
67901;DHT22;54700;51.796;10.956;2023-02-26T13:18:53;2.30;58.50
67901;DHT22;54700;51.796;10.956;2023-02-26T13:21:26;2.30;56.00
67901;DHT22;54700;51.796;10.956;2023-02-26T13:23:59;2.20;56.10
67901;DHT22;54700;51.796;10.956;2023-02-26T13:26:31;2.20;55.80
67901;DHT22;54700;51.796;10.956;2023-02-26T13:28:59;2.30;54.10
67901;DHT22;54700;51.796;10.956;2023-02-26T13:31:31;2.30;55.00
67901;DHT22;54700;51.796;10.956;2023-02-26T13:34:03;2.40;56.00
67901;DHT22;54700;51.796;10.956;2023-02-26T13:36:36;2.50;57.90
67901;DHT22;54700;51.796;10.956;2023-02-26T13:39:09;2.60;57.50
67901;DHT22;54700;51.796;10.956;2023-02-26T13:41:52;2.70;54.00
67901;DHT22;54700;51.796;10.956;2023-02-26T13:44:29;2.60;53.00
67901;DHT22;54700;51.796;10.956;2023-02-26T13:47:22;2.50;54.40
67901;DHT22;54700;51.796;10.956;2023-02-26T13:50:03;2.50;54.20
67901;DHT22;54700;51.796;10.956;2023-02-26T13:52:49;2.40;53.60
67901;DHT22;54700;51.796;10.956;2023-02-26T13:58:28;2.30;54.60
67901;DHT22;54700;51.796;10.956;2023-02-26T14:01:03;2.30;55.00
67901;DHT22;54700;51.796;10.956;2023-02-26T14:03:33;2.20;52.20
67901;DHT22;54700;51.796;10.956;2023-02-26T14:06:24;2.10;53.00
67901;DHT22;54700;51.796;10.956;2023-02-26T14:09:02;2.10;53.30
67901;DHT22;54700;51.796;10.956;2023-02-26T14:14:15;2.30;54.30
67901;DHT22;54700;51.796;10.956;2023-02-26T14:16:48;2.40;53.60
67901;DHT22;54700;51.796;10.956;2023-02-26T14:19:43;2.40;52.90
67901;DHT22;54700;51.796;10.956;2023-02-26T14:22:33;2.30;53.50
67901;DHT22;54700;51.796;10.956;2023-02-26T14:25:15;2.20;53.10
67901;DHT22;54700;51.796;10.956;2023-02-26T14:27:47;2.10;53.90
67901;DHT22;54700;51.796;10.956;2023-02-26T14:30:18;2.00;54.50
67901;DHT22;54700;51.796;10.956;2023-02-26T14:32:53;2.00;54.30
67901;DHT22;54700;51.796;10.956;2023-02-26T14:35:33;2.00;54.30
67901;DHT22;54700;51.796;10.956;2023-02-26T14:38:05;2.10;53.70
67901;DHT22;54700;51.796;10.956;2023-02-26T14:40:38;2.20;54.10
67901;DHT22;54700;51.796;10.956;2023-02-26T14:43:11;2.30;54.20
67901;DHT22;54700;51.796;10.956;2023-02-26T14:45:45;2.30;52.00
67901;DHT22;54700;51.796;10.956;2023-02-26T14:48:14;2.20;52.10
67901;DHT22;54700;51.796;10.956;2023-02-26T14:50:45;2.10;52.10
67901;DHT22;54700;51.796;10.956;2023-02-26T14:53:27;2.10;53.20
67901;DHT22;54700;51.796;10.956;2023-02-26T14:56:09;2.10;53.10
67901;DHT22;54700;51.796;10.956;2023-02-26T14:58:48;2.20;53.30
67901;DHT22;54700;51.796;10.956;2023-02-26T15:01:41;2.20;51.10
67901;DHT22;54700;51.796;10.956;2023-02-26T15:04:13;2.30;49.50
67901;DHT22;54700;51.796;10.956;2023-02-26T15:07:09;2.40;50.40
67901;DHT22;54700;51.796;10.956;2023-02-26T15:09:47;2.50;48.60
67901;DHT22;54700;51.796;10.956;2023-02-26T15:12:30;2.50;48.10
67901;DHT22;54700;51.796;10.956;2023-02-26T15:18:04;2.40;49.00
67901;DHT22;54700;51.796;10.956;2023-02-26T15:20:45;2.40;49.70
67901;DHT22;54700;51.796;10.956;2023-02-26T15:23:27;2.30;50.20
67901;DHT22;54700;51.796;10.956;2023-02-26T15:26:05;2.20;51.00
67901;DHT22;54700;51.796;10.956;2023-02-26T15:28:36;2.10;51.80
67901;DHT22;54700;51.796;10.956;2023-02-26T15:31:05;2.00;51.10
67901;DHT22;54700;51.796;10.956;2023-02-26T15:33:35;2.00;52.00
67901;DHT22;54700;51.796;10.956;2023-02-26T15:36:05;2.00;52.40
67901;DHT22;54700;51.796;10.956;2023-02-26T15:38:41;2.00;53.10
67901;DHT22;54700;51.796;10.956;2023-02-26T15:41:09;2.10;53.80
67901;DHT22;54700;51.796;10.956;2023-02-26T15:43:46;2.10;53.30
67901;DHT22;54700;51.796;10.956;2023-02-26T15:46:15;2.10;53.10
67901;DHT22;54700;51.796;10.956;2023-02-26T15:48:44;2.10;54.90
67901;DHT22;54700;51.796;10.956;2023-02-26T15:51:17;2.00;54.40
67901;DHT22;54700;51.796;10.956;2023-02-26T15:53:46;2.00;55.30
67901;DHT22;54700;51.796;10.956;2023-02-26T15:56:17;2.00;56.00
67901;DHT22;54700;51.796;10.956;2023-02-26T15:58:48;2.00;56.50
67901;DHT22;54700;51.796;10.956;2023-02-26T16:01:21;1.90;56.40